UAE156 OMDB-VRMM
Flight info
| Callsign | UAE156 |
|---|---|
| Flight time | 3h 42m |
| Altitude | 41000 |
| Route | ANVIX L223 TARDI N629 GIDAN P570 KITAL L894 ELBET ELBET1A |
| Aircraft | A359/H-SDE2E3GHIJ3J4J5LM1ORWXY/LB1D1 |
Departure
| Time | 2026-05-07 08:08 |
|---|---|
| Airport | Dubai International Airport (OMDB) |
Arrival
| Time | 2026-05-07 11:50 |
|---|---|
| Airport | Velana International Airport (VRMM) |
| Time | Latitude | Longitude | Altitude | Speed | Heading |
|---|---|---|---|---|---|
| 2026-05-07 07:44 | 25.25371 | 55.35428 | 27 ft | 0 kts | 212° |
| 2026-05-07 07:55 | 25.25375 | 55.35431 | 27 ft | 4 kts | 211° |
| 2026-05-07 07:55 | 25.25399 | 55.35446 | 26 ft | 4 kts | 205° |
| 2026-05-07 07:55 | 25.25423 | 55.35458 | 27 ft | 3 kts | 211° |
| 2026-05-07 07:55 | 25.25441 | 55.35472 | 27 ft | 4 kts | 238° |
| 2026-05-07 07:56 | 25.25445 | 55.35496 | 27 ft | 4 kts | 296° |
| 2026-05-07 07:56 | 25.25433 | 55.35521 | 27 ft | 4 kts | 302° |
| 2026-05-07 07:56 | 25.25427 | 55.35531 | 27 ft | 0 kts | 302° |
| 2026-05-07 08:00 | 25.25430 | 55.35525 | 27 ft | 4 kts | 302° |
| 2026-05-07 08:00 | 25.25458 | 55.35475 | 27 ft | 11 kts | 302° |
| 2026-05-07 08:00 | 25.25508 | 55.35386 | 27 ft | 16 kts | 302° |
| 2026-05-07 08:01 | 25.25575 | 55.35268 | 27 ft | 20 kts | 303° |
| 2026-05-07 08:01 | 25.25671 | 55.35160 | 27 ft | 15 kts | 356° |
| 2026-05-07 08:01 | 25.25776 | 55.35219 | 27 ft | 19 kts | 31° |
| 2026-05-07 08:01 | 25.25903 | 55.35305 | 28 ft | 23 kts | 31° |
| 2026-05-07 08:02 | 25.25988 | 55.35378 | 28 ft | 24 kts | 57° |
| 2026-05-07 08:02 | 25.25988 | 55.35556 | 28 ft | 25 kts | 117° |
| 2026-05-07 08:02 | 25.25898 | 55.35719 | 28 ft | 26 kts | 122° |
| 2026-05-07 08:02 | 25.25814 | 55.35867 | 28 ft | 28 kts | 122° |
| 2026-05-07 08:03 | 25.25719 | 55.36035 | 28 ft | 26 kts | 122° |
| 2026-05-07 08:03 | 25.25622 | 55.36208 | 29 ft | 27 kts | 122° |
| 2026-05-07 08:03 | 25.25519 | 55.36391 | 28 ft | 29 kts | 122° |
| 2026-05-07 08:03 | 25.25411 | 55.36583 | 28 ft | 30 kts | 122° |
| 2026-05-07 08:04 | 25.25297 | 55.36785 | 28 ft | 31 kts | 122° |
| 2026-05-07 08:04 | 25.25213 | 55.36936 | 28 ft | 18 kts | 122° |
| 2026-05-07 08:04 | 25.25159 | 55.37033 | 29 ft | 14 kts | 121° |
| 2026-05-07 08:04 | 25.25103 | 55.37131 | 30 ft | 16 kts | 122° |
| 2026-05-07 08:05 | 25.25037 | 55.37246 | 29 ft | 19 kts | 122° |
| 2026-05-07 08:05 | 25.24961 | 55.37378 | 30 ft | 21 kts | 122° |
| 2026-05-07 08:05 | 25.24882 | 55.37526 | 29 ft | 24 kts | 121° |
| 2026-05-07 08:05 | 25.24793 | 55.37688 | 29 ft | 26 kts | 123° |
| 2026-05-07 08:06 | 25.24719 | 55.37816 | 29 ft | 16 kts | 118° |
| 2026-05-07 08:06 | 25.24759 | 55.37901 | 29 ft | 7 kts | 33° |
| 2026-05-07 08:06 | 25.24808 | 55.37936 | 31 ft | 9 kts | 32° |
| 2026-05-07 08:06 | 25.24860 | 55.37926 | 31 ft | 8 kts | 311° |
| 2026-05-07 08:07 | 25.24867 | 55.37913 | 32 ft | 0 kts | 302° |
| 2026-05-07 08:07 | 25.24952 | 55.37763 | 32 ft | 59 kts | 302° |
| 2026-05-07 08:07 | 25.25287 | 55.37159 | 33 ft | 124 kts | 301° |
| 2026-05-07 08:07 | 25.25836 | 55.36166 | 48 ft | 175 kts | 300° |
| 2026-05-07 08:08 | 25.26424 | 55.35059 | 867 ft | 163 kts | 298° |
| 2026-05-07 08:08 | 25.26995 | 55.33975 | 1441 ft | 164 kts | 298° |
| 2026-05-07 08:08 | 25.27594 | 55.32869 | 1723 ft | 174 kts | 300° |
| 2026-05-07 08:08 | 25.28270 | 55.31685 | 1989 ft | 190 kts | 301° |
| 2026-05-07 08:09 | 25.28963 | 55.30368 | 2227 ft | 206 kts | 293° |
| 2026-05-07 08:09 | 25.29169 | 55.28762 | 2500 ft | 223 kts | 259° |
| 2026-05-07 08:09 | 25.28640 | 55.27118 | 2920 ft | 231 kts | 245° |
| 2026-05-07 08:09 | 25.27934 | 55.25498 | 3458 ft | 237 kts | 244° |
| 2026-05-07 08:10 | 25.27214 | 55.23853 | 4051 ft | 239 kts | 244° |
| 2026-05-07 08:10 | 25.26490 | 55.22193 | 4665 ft | 240 kts | 245° |
| 2026-05-07 08:10 | 25.25769 | 55.20520 | 5228 ft | 243 kts | 245° |
| 2026-05-07 08:10 | 25.25027 | 55.18835 | 5776 ft | 245 kts | 242° |
| 2026-05-07 08:11 | 25.23937 | 55.17387 | 6303 ft | 249 kts | 216° |
| 2026-05-07 08:11 | 25.22313 | 55.16711 | 6749 ft | 258 kts | 185° |
| 2026-05-07 08:11 | 25.20498 | 55.16776 | 7187 ft | 265 kts | 171° |
| 2026-05-07 08:11 | 25.18767 | 55.17505 | 7677 ft | 270 kts | 145° |
| 2026-05-07 08:12 | 25.17476 | 55.19040 | 8009 ft | 280 kts | 121° |
| 2026-05-07 08:12 | 25.16520 | 55.20967 | 8280 ft | 292 kts | 117° |
| 2026-05-07 08:12 | 25.15595 | 55.22987 | 8699 ft | 298 kts | 117° |
| 2026-05-07 08:12 | 25.14647 | 55.25032 | 9171 ft | 301 kts | 117° |
| 2026-05-07 08:13 | 25.13680 | 55.27085 | 9679 ft | 303 kts | 117° |
| 2026-05-07 08:13 | 25.12701 | 55.29148 | 10254 ft | 303 kts | 118° |
| 2026-05-07 08:13 | 25.11718 | 55.31201 | 10853 ft | 303 kts | 118° |
| 2026-05-07 08:13 | 25.10724 | 55.33266 | 11398 ft | 306 kts | 117° |
| 2026-05-07 08:14 | 25.09785 | 55.35377 | 12015 ft | 306 kts | 113° |
| 2026-05-07 08:14 | 25.08922 | 55.37525 | 12691 ft | 306 kts | 112° |
| 2026-05-07 08:14 | 25.08063 | 55.39668 | 13379 ft | 306 kts | 113° |
| 2026-05-07 08:14 | 25.07193 | 55.41817 | 14002 ft | 307 kts | 114° |
| 2026-05-07 08:15 | 25.06334 | 55.44005 | 14419 ft | 316 kts | 113° |
| 2026-05-07 08:15 | 25.05469 | 55.46292 | 14667 ft | 330 kts | 113° |
| 2026-05-07 08:15 | 25.04563 | 55.48676 | 14898 ft | 344 kts | 113° |
| 2026-05-07 08:15 | 25.03626 | 55.51118 | 15115 ft | 356 kts | 113° |
| 2026-05-07 08:16 | 25.02630 | 55.53707 | 15362 ft | 368 kts | 113° |
| 2026-05-07 08:16 | 25.01492 | 55.56274 | 15572 ft | 378 kts | 119° |
| 2026-05-07 08:16 | 25.00161 | 55.58799 | 15890 ft | 384 kts | 121° |
| 2026-05-07 08:16 | 24.98786 | 55.61337 | 16300 ft | 388 kts | 121° |
| 2026-05-07 08:17 | 24.97394 | 55.63902 | 16737 ft | 390 kts | 121° |
| 2026-05-07 08:17 | 24.95997 | 55.66480 | 17165 ft | 393 kts | 121° |
| 2026-05-07 08:17 | 24.94603 | 55.69038 | 17564 ft | 396 kts | 122° |
| 2026-05-07 08:17 | 24.93051 | 55.71558 | 17976 ft | 399 kts | 126° |
| 2026-05-07 08:18 | 24.91413 | 55.74042 | 18401 ft | 402 kts | 126° |
| 2026-05-07 08:18 | 24.89754 | 55.76536 | 18832 ft | 405 kts | 126° |
| 2026-05-07 08:18 | 24.88084 | 55.79046 | 19231 ft | 408 kts | 126° |
| 2026-05-07 08:18 | 24.86406 | 55.81572 | 19635 ft | 411 kts | 126° |
| 2026-05-07 08:19 | 24.84715 | 55.84119 | 20016 ft | 414 kts | 126° |
| 2026-05-07 08:19 | 24.83008 | 55.86687 | 20407 ft | 416 kts | 127° |
| 2026-05-07 08:19 | 24.81272 | 55.89250 | 20779 ft | 419 kts | 127° |
| 2026-05-07 08:19 | 24.79520 | 55.91827 | 21143 ft | 422 kts | 127° |
| 2026-05-07 08:20 | 24.77648 | 55.94321 | 21488 ft | 424 kts | 133° |
| 2026-05-07 08:20 | 24.75587 | 55.96657 | 21836 ft | 427 kts | 136° |
| 2026-05-07 08:20 | 24.73428 | 55.98910 | 22192 ft | 429 kts | 137° |
| 2026-05-07 08:20 | 24.71217 | 56.01134 | 22525 ft | 432 kts | 138° |
| 2026-05-07 08:21 | 24.68987 | 56.03359 | 22850 ft | 434 kts | 138° |
| 2026-05-07 08:21 | 24.66751 | 56.05608 | 23146 ft | 437 kts | 137° |
| 2026-05-07 08:21 | 24.64510 | 56.07880 | 23461 ft | 440 kts | 137° |
| 2026-05-07 08:21 | 24.62262 | 56.10172 | 23768 ft | 442 kts | 137° |
| 2026-05-07 08:22 | 24.60009 | 56.12481 | 24083 ft | 444 kts | 137° |
| 2026-05-07 08:22 | 24.57775 | 56.14835 | 24365 ft | 447 kts | 134° |
| 2026-05-07 08:22 | 24.55670 | 56.17354 | 24676 ft | 449 kts | 132° |
| 2026-05-07 08:22 | 24.53591 | 56.19931 | 24991 ft | 452 kts | 131° |
| 2026-05-07 08:23 | 24.51526 | 56.22542 | 25323 ft | 454 kts | 131° |
| 2026-05-07 08:23 | 24.49455 | 56.25183 | 25664 ft | 457 kts | 131° |
| 2026-05-07 08:23 | 24.47381 | 56.27837 | 26010 ft | 460 kts | 131° |
| 2026-05-07 08:23 | 24.45317 | 56.30478 | 26354 ft | 462 kts | 131° |
| 2026-05-07 08:24 | 24.43212 | 56.33163 | 26697 ft | 466 kts | 131° |
| 2026-05-07 08:24 | 24.41093 | 56.35861 | 27073 ft | 468 kts | 131° |
| 2026-05-07 08:24 | 24.38933 | 56.38607 | 27420 ft | 471 kts | 131° |
| 2026-05-07 08:24 | 24.36783 | 56.41337 | 27757 ft | 474 kts | 131° |
| 2026-05-07 08:25 | 24.34620 | 56.44080 | 28097 ft | 477 kts | 131° |
| 2026-05-07 08:25 | 24.32470 | 56.46805 | 28446 ft | 480 kts | 131° |
| 2026-05-07 08:25 | 24.30280 | 56.49576 | 28773 ft | 482 kts | 131° |
| 2026-05-07 08:25 | 24.28118 | 56.52398 | 29079 ft | 486 kts | 129° |
| 2026-05-07 08:26 | 24.24113 | 56.58424 | 29708 ft | 492 kts | 126° |
| 2026-05-07 08:26 | 24.22155 | 56.61506 | 30025 ft | 494 kts | 126° |
| 2026-05-07 08:26 | 24.20182 | 56.64592 | 30312 ft | 496 kts | 126° |
| 2026-05-07 08:27 | 24.18176 | 56.67686 | 30592 ft | 498 kts | 127° |
| 2026-05-07 08:27 | 24.16149 | 56.70775 | 30901 ft | 500 kts | 127° |
| 2026-05-07 08:27 | 24.14102 | 56.73867 | 31173 ft | 503 kts | 127° |
| 2026-05-07 08:27 | 24.12038 | 56.76968 | 31446 ft | 505 kts | 127° |
| 2026-05-07 08:28 | 24.09964 | 56.80076 | 31701 ft | 507 kts | 127° |
| 2026-05-07 08:28 | 24.07877 | 56.83198 | 31955 ft | 508 kts | 127° |
| 2026-05-07 08:28 | 24.05786 | 56.86327 | 32190 ft | 510 kts | 127° |
| 2026-05-07 08:28 | 24.03690 | 56.89465 | 32429 ft | 512 kts | 127° |
| 2026-05-07 08:29 | 24.01589 | 56.92616 | 32655 ft | 514 kts | 127° |
| 2026-05-07 08:29 | 23.99474 | 56.95776 | 32860 ft | 516 kts | 127° |
| 2026-05-07 08:29 | 23.97348 | 56.98949 | 33090 ft | 517 kts | 127° |
| 2026-05-07 08:29 | 23.95223 | 57.02118 | 33333 ft | 517 kts | 127° |
| 2026-05-07 08:30 | 23.93097 | 57.05287 | 33607 ft | 517 kts | 127° |
| 2026-05-07 08:30 | 23.90970 | 57.08450 | 33870 ft | 517 kts | 127° |
| 2026-05-07 08:30 | 23.88844 | 57.11613 | 34145 ft | 516 kts | 127° |
| 2026-05-07 08:30 | 23.86724 | 57.14778 | 34422 ft | 515 kts | 127° |
| 2026-05-07 08:31 | 23.84607 | 57.17932 | 34695 ft | 515 kts | 127° |
| 2026-05-07 08:31 | 23.82487 | 57.21085 | 34967 ft | 514 kts | 127° |
| 2026-05-07 08:31 | 23.80373 | 57.24227 | 35218 ft | 513 kts | 127° |
| 2026-05-07 08:31 | 23.78260 | 57.27365 | 35465 ft | 513 kts | 127° |
| 2026-05-07 08:32 | 23.76149 | 57.30499 | 35702 ft | 512 kts | 127° |
| 2026-05-07 08:32 | 23.74037 | 57.33631 | 35938 ft | 512 kts | 127° |
| 2026-05-07 08:32 | 23.71923 | 57.36766 | 36160 ft | 512 kts | 127° |
| 2026-05-07 08:32 | 23.69810 | 57.39820 | 36374 ft | 511 kts | 129° |
| 2026-05-07 08:33 | 23.67582 | 57.42900 | 36591 ft | 510 kts | 129° |
| 2026-05-07 08:33 | 23.65354 | 57.45919 | 36794 ft | 510 kts | 130° |
| 2026-05-07 08:33 | 23.63156 | 57.48883 | 37023 ft | 509 kts | 130° |
| 2026-05-07 08:33 | 23.60941 | 57.51882 | 37295 ft | 506 kts | 130° |
| 2026-05-07 08:34 | 23.58745 | 57.54869 | 37576 ft | 504 kts | 129° |
| 2026-05-07 08:34 | 23.56565 | 57.57847 | 37854 ft | 501 kts | 129° |
| 2026-05-07 08:34 | 23.54394 | 57.60819 | 38101 ft | 500 kts | 129° |
| 2026-05-07 08:34 | 23.52232 | 57.63783 | 38279 ft | 499 kts | 129° |
| 2026-05-07 08:35 | 23.50074 | 57.66741 | 38457 ft | 499 kts | 129° |
| 2026-05-07 08:35 | 23.47918 | 57.69698 | 38608 ft | 499 kts | 129° |
| 2026-05-07 08:35 | 23.45761 | 57.72654 | 38751 ft | 499 kts | 129° |
| 2026-05-07 08:35 | 23.43598 | 57.75611 | 38800 ft | 499 kts | 129° |
| 2026-05-07 08:36 | 23.39275 | 57.81507 | 38805 ft | 498 kts | 129° |
| 2026-05-07 08:36 | 23.34947 | 57.87403 | 38806 ft | 498 kts | 129° |
| 2026-05-07 08:37 | 23.30625 | 57.93285 | 38802 ft | 498 kts | 130° |
| 2026-05-07 08:37 | 23.26294 | 57.99176 | 38806 ft | 498 kts | 129° |
| 2026-05-07 08:38 | 23.22053 | 58.05138 | 38806 ft | 499 kts | 126° |
| 2026-05-07 08:38 | 23.18167 | 58.11387 | 38805 ft | 499 kts | 124° |
| 2026-05-07 08:39 | 23.14326 | 58.17670 | 38802 ft | 499 kts | 124° |
| 2026-05-07 08:39 | 23.10456 | 58.23868 | 38803 ft | 498 kts | 125° |
| 2026-05-07 08:40 | 23.06530 | 58.30071 | 38804 ft | 498 kts | 125° |
| 2026-05-07 08:40 | 23.02365 | 58.36072 | 38803 ft | 497 kts | 134° |
| 2026-05-07 08:41 | 22.97002 | 58.40740 | 38801 ft | 494 kts | 148° |
| 2026-05-07 08:41 | 22.91178 | 58.44699 | 38806 ft | 494 kts | 150° |
| 2026-05-07 08:42 | 22.85281 | 58.48546 | 38804 ft | 495 kts | 150° |
| 2026-05-07 08:42 | 22.79397 | 58.52398 | 38805 ft | 494 kts | 150° |
| 2026-05-07 08:43 | 22.73519 | 58.56275 | 38813 ft | 494 kts | 149° |
| 2026-05-07 08:43 | 22.67649 | 58.60156 | 38814 ft | 494 kts | 149° |
| 2026-05-07 08:44 | 22.61785 | 58.64037 | 38812 ft | 494 kts | 149° |
| 2026-05-07 08:44 | 22.55913 | 58.67909 | 38814 ft | 494 kts | 149° |
| 2026-05-07 08:45 | 22.50037 | 58.71778 | 38814 ft | 494 kts | 149° |
| 2026-05-07 08:45 | 22.44163 | 58.75645 | 38815 ft | 494 kts | 149° |
| 2026-05-07 08:46 | 22.38286 | 58.79511 | 38814 ft | 494 kts | 149° |
| 2026-05-07 08:46 | 22.32412 | 58.83371 | 38822 ft | 494 kts | 149° |
| 2026-05-07 08:47 | 22.26579 | 58.87198 | 38822 ft | 494 kts | 149° |
| 2026-05-07 08:47 | 22.20699 | 58.91057 | 38824 ft | 494 kts | 149° |
| 2026-05-07 08:48 | 22.14826 | 58.94906 | 38825 ft | 494 kts | 149° |
| 2026-05-07 08:48 | 22.08946 | 58.98753 | 38824 ft | 494 kts | 149° |
| 2026-05-07 08:49 | 22.04051 | 59.01953 | 38826 ft | 494 kts | 149° |
| 2026-05-07 08:49 | 21.98168 | 59.05796 | 38832 ft | 495 kts | 149° |
| 2026-05-07 08:50 | 21.92280 | 59.09639 | 38832 ft | 494 kts | 149° |
| 2026-05-07 08:50 | 21.86401 | 59.13473 | 38832 ft | 494 kts | 149° |
| 2026-05-07 08:51 | 21.80519 | 59.17305 | 38832 ft | 494 kts | 149° |
| 2026-05-07 08:51 | 21.74634 | 59.21136 | 38840 ft | 494 kts | 149° |
| 2026-05-07 08:52 | 21.68749 | 59.24962 | 38842 ft | 494 kts | 149° |
| 2026-05-07 08:52 | 21.62856 | 59.28790 | 38841 ft | 494 kts | 149° |
| 2026-05-07 08:53 | 21.56973 | 59.32612 | 38841 ft | 494 kts | 149° |
| 2026-05-07 08:53 | 21.51121 | 59.36407 | 38841 ft | 494 kts | 149° |
| 2026-05-07 08:54 | 21.45236 | 59.40217 | 38841 ft | 494 kts | 149° |
| 2026-05-07 08:54 | 21.39347 | 59.44027 | 38842 ft | 494 kts | 149° |
| 2026-05-07 08:55 | 21.33460 | 59.47839 | 38847 ft | 494 kts | 149° |
| 2026-05-07 08:55 | 21.27572 | 59.51647 | 38851 ft | 494 kts | 149° |
| 2026-05-07 08:56 | 21.21688 | 59.55456 | 38851 ft | 494 kts | 149° |
| 2026-05-07 08:56 | 21.15800 | 59.59250 | 38850 ft | 494 kts | 149° |
| 2026-05-07 08:57 | 21.09908 | 59.63038 | 38850 ft | 494 kts | 149° |
| 2026-05-07 08:57 | 21.04016 | 59.66827 | 38850 ft | 494 kts | 149° |
| 2026-05-07 08:58 | 20.98128 | 59.70618 | 38851 ft | 494 kts | 149° |
| 2026-05-07 08:58 | 20.92242 | 59.74401 | 38850 ft | 494 kts | 149° |
| 2026-05-07 08:59 | 20.86355 | 59.78171 | 38852 ft | 494 kts | 149° |
| 2026-05-07 08:59 | 20.80463 | 59.81942 | 38860 ft | 493 kts | 149° |
| 2026-05-07 09:00 | 20.74578 | 59.85709 | 38860 ft | 493 kts | 149° |
| 2026-05-07 09:00 | 20.68729 | 59.89452 | 38860 ft | 493 kts | 149° |
| 2026-05-07 09:01 | 20.62855 | 59.93205 | 38860 ft | 492 kts | 149° |
| 2026-05-07 09:01 | 20.56966 | 59.96963 | 38860 ft | 492 kts | 149° |
| 2026-05-07 09:02 | 20.51085 | 60.00714 | 38860 ft | 492 kts | 149° |
| 2026-05-07 09:02 | 20.45209 | 60.04460 | 38860 ft | 492 kts | 149° |
| 2026-05-07 09:03 | 20.39327 | 60.08206 | 38860 ft | 492 kts | 149° |
| 2026-05-07 09:03 | 20.33452 | 60.11944 | 38860 ft | 492 kts | 149° |
| 2026-05-07 09:04 | 20.27577 | 60.15677 | 38859 ft | 492 kts | 149° |
| 2026-05-07 09:04 | 20.21690 | 60.19418 | 38860 ft | 493 kts | 149° |
| 2026-05-07 09:05 | 20.15793 | 60.23159 | 38860 ft | 493 kts | 149° |
| 2026-05-07 09:05 | 20.09897 | 60.26892 | 38860 ft | 493 kts | 149° |
| 2026-05-07 09:06 | 20.04143 | 60.30948 | 38862 ft | 494 kts | 140° |
| 2026-05-07 09:06 | 19.98959 | 60.35679 | 38859 ft | 494 kts | 139° |
| 2026-05-07 09:07 | 19.93845 | 60.40557 | 38867 ft | 494 kts | 138° |
| 2026-05-07 09:07 | 19.88739 | 60.45447 | 39148 ft | 494 kts | 138° |
| 2026-05-07 09:08 | 19.86181 | 60.47886 | 39305 ft | 493 kts | 138° |
| 2026-05-07 09:08 | 19.83629 | 60.50314 | 39461 ft | 493 kts | 138° |
| 2026-05-07 09:08 | 19.81078 | 60.52737 | 39595 ft | 492 kts | 138° |
| 2026-05-07 09:08 | 19.78523 | 60.55160 | 39726 ft | 492 kts | 138° |
| 2026-05-07 09:09 | 19.75974 | 60.57575 | 39851 ft | 492 kts | 138° |
| 2026-05-07 09:09 | 19.73390 | 60.60022 | 39986 ft | 491 kts | 139° |
| 2026-05-07 09:09 | 19.68326 | 60.64817 | 40197 ft | 491 kts | 139° |
| 2026-05-07 09:10 | 19.63233 | 60.69637 | 40400 ft | 490 kts | 139° |
| 2026-05-07 09:10 | 19.60688 | 60.72043 | 40502 ft | 490 kts | 139° |
| 2026-05-07 09:10 | 19.58144 | 60.74448 | 40606 ft | 490 kts | 139° |
| 2026-05-07 09:11 | 19.55600 | 60.76852 | 40709 ft | 490 kts | 139° |
| 2026-05-07 09:11 | 19.53025 | 60.79284 | 40794 ft | 489 kts | 139° |
| 2026-05-07 09:11 | 19.47967 | 60.84056 | 40877 ft | 489 kts | 139° |
| 2026-05-07 09:12 | 19.42883 | 60.88851 | 40861 ft | 489 kts | 139° |
| 2026-05-07 09:12 | 19.37793 | 60.93646 | 40879 ft | 489 kts | 139° |
| 2026-05-07 09:13 | 19.32704 | 60.98436 | 40877 ft | 489 kts | 139° |
| 2026-05-07 09:13 | 19.27620 | 61.03217 | 40861 ft | 489 kts | 139° |
| 2026-05-07 09:14 | 19.22528 | 61.08001 | 40860 ft | 489 kts | 139° |
| 2026-05-07 09:14 | 19.17438 | 61.12780 | 40874 ft | 489 kts | 139° |
| 2026-05-07 09:15 | 19.12348 | 61.17554 | 40874 ft | 489 kts | 139° |
| 2026-05-07 09:15 | 19.07252 | 61.22330 | 40861 ft | 489 kts | 139° |
| 2026-05-07 09:16 | 19.02161 | 61.27097 | 40860 ft | 489 kts | 139° |
| 2026-05-07 09:16 | 18.97068 | 61.31862 | 40870 ft | 489 kts | 139° |
| 2026-05-07 09:17 | 18.91972 | 61.36625 | 40877 ft | 489 kts | 139° |
| 2026-05-07 09:17 | 18.86879 | 61.41382 | 40878 ft | 489 kts | 139° |
| 2026-05-07 09:18 | 18.81787 | 61.46134 | 40860 ft | 489 kts | 139° |
| 2026-05-07 09:18 | 18.76692 | 61.50884 | 40860 ft | 489 kts | 139° |
| 2026-05-07 09:19 | 18.71634 | 61.55597 | 40860 ft | 489 kts | 139° |
| 2026-05-07 09:19 | 18.66534 | 61.60344 | 40860 ft | 488 kts | 139° |
| 2026-05-07 09:20 | 18.61437 | 61.65084 | 40860 ft | 488 kts | 139° |
| 2026-05-07 09:20 | 18.56343 | 61.69818 | 40860 ft | 488 kts | 139° |
| 2026-05-07 09:21 | 18.51246 | 61.74550 | 40860 ft | 488 kts | 139° |
| 2026-05-07 09:21 | 18.46153 | 61.79276 | 40860 ft | 488 kts | 139° |
| 2026-05-07 09:22 | 18.41056 | 61.84000 | 40859 ft | 488 kts | 139° |
| 2026-05-07 09:22 | 18.35967 | 61.88715 | 40860 ft | 488 kts | 139° |
| 2026-05-07 09:23 | 18.30872 | 61.93430 | 40860 ft | 488 kts | 139° |
| 2026-05-07 09:23 | 18.25774 | 61.98144 | 40860 ft | 488 kts | 139° |
| 2026-05-07 09:24 | 18.20676 | 62.02854 | 40860 ft | 487 kts | 139° |
| 2026-05-07 09:24 | 18.15575 | 62.07563 | 40860 ft | 487 kts | 139° |
| 2026-05-07 09:25 | 18.10476 | 62.12268 | 40860 ft | 487 kts | 139° |
| 2026-05-07 09:25 | 18.05378 | 62.16967 | 40860 ft | 487 kts | 139° |
| 2026-05-07 09:26 | 18.00280 | 62.21661 | 40860 ft | 487 kts | 139° |
| 2026-05-07 09:26 | 17.95209 | 62.26328 | 40860 ft | 487 kts | 139° |
| 2026-05-07 09:27 | 17.90076 | 62.31048 | 40860 ft | 487 kts | 139° |
| 2026-05-07 09:28 | 17.82454 | 62.38049 | 40861 ft | 487 kts | 139° |
| 2026-05-07 09:28 | 17.77354 | 62.42730 | 40861 ft | 487 kts | 139° |
| 2026-05-07 09:29 | 17.72251 | 62.47410 | 40860 ft | 487 kts | 139° |
| 2026-05-07 09:29 | 17.67144 | 62.52089 | 40860 ft | 487 kts | 139° |
| 2026-05-07 09:30 | 17.62039 | 62.56763 | 40860 ft | 487 kts | 139° |
| 2026-05-07 09:30 | 17.56901 | 62.61463 | 40861 ft | 487 kts | 139° |
| 2026-05-07 09:31 | 17.51830 | 62.66098 | 40860 ft | 487 kts | 139° |
| 2026-05-07 09:31 | 17.46722 | 62.70764 | 40860 ft | 487 kts | 139° |
| 2026-05-07 09:32 | 17.41616 | 62.75424 | 40860 ft | 487 kts | 139° |
| 2026-05-07 09:32 | 17.36508 | 62.80083 | 40860 ft | 487 kts | 139° |
| 2026-05-07 09:33 | 17.31402 | 62.84736 | 40858 ft | 487 kts | 139° |
| 2026-05-07 09:33 | 17.27155 | 62.88603 | 40851 ft | 487 kts | 139° |
| 2026-05-07 09:34 | 17.22047 | 62.93252 | 40850 ft | 487 kts | 139° |
| 2026-05-07 09:34 | 17.16943 | 62.97893 | 40851 ft | 486 kts | 139° |
| 2026-05-07 09:35 | 17.11832 | 63.02537 | 40851 ft | 486 kts | 139° |
| 2026-05-07 09:35 | 17.06728 | 63.07172 | 40850 ft | 486 kts | 139° |
| 2026-05-07 09:36 | 17.01621 | 63.11805 | 40851 ft | 486 kts | 139° |
| 2026-05-07 09:36 | 16.96473 | 63.16381 | 40850 ft | 486 kts | 140° |
| 2026-05-07 09:37 | 16.91250 | 63.20874 | 40851 ft | 486 kts | 141° |
| 2026-05-07 09:37 | 16.86031 | 63.25362 | 40851 ft | 486 kts | 140° |
| 2026-05-07 09:38 | 16.80826 | 63.29861 | 40851 ft | 486 kts | 140° |
| 2026-05-07 09:38 | 16.75623 | 63.34368 | 40850 ft | 486 kts | 140° |
| 2026-05-07 09:39 | 16.70422 | 63.38869 | 40850 ft | 486 kts | 140° |
| 2026-05-07 09:39 | 16.65223 | 63.43366 | 40851 ft | 486 kts | 140° |
| 2026-05-07 09:40 | 16.60021 | 63.47861 | 40850 ft | 486 kts | 140° |
| 2026-05-07 09:40 | 16.54817 | 63.52354 | 40851 ft | 486 kts | 140° |
| 2026-05-07 09:41 | 16.49615 | 63.56843 | 40851 ft | 485 kts | 140° |
| 2026-05-07 09:41 | 16.44415 | 63.61326 | 40843 ft | 485 kts | 140° |
| 2026-05-07 09:42 | 16.39212 | 63.65809 | 40832 ft | 485 kts | 140° |
| 2026-05-07 09:42 | 16.34015 | 63.70283 | 40832 ft | 485 kts | 140° |
| 2026-05-07 09:43 | 16.28816 | 63.74756 | 40832 ft | 485 kts | 140° |
| 2026-05-07 09:43 | 16.23613 | 63.79229 | 40832 ft | 485 kts | 141° |
| 2026-05-07 09:44 | 16.18413 | 63.83696 | 40832 ft | 485 kts | 141° |
| 2026-05-07 09:44 | 16.13215 | 63.88159 | 40832 ft | 485 kts | 141° |
| 2026-05-07 09:45 | 16.08048 | 63.92592 | 40832 ft | 485 kts | 141° |
| 2026-05-07 09:45 | 16.02844 | 63.97053 | 40832 ft | 485 kts | 141° |
| 2026-05-07 09:46 | 15.97607 | 64.01540 | 40832 ft | 485 kts | 141° |
| 2026-05-07 09:46 | 15.92435 | 64.05968 | 40832 ft | 485 kts | 141° |
| 2026-05-07 09:47 | 15.87231 | 64.10420 | 40832 ft | 485 kts | 141° |
| 2026-05-07 09:47 | 15.82023 | 64.14872 | 40832 ft | 485 kts | 141° |
| 2026-05-07 09:48 | 15.76817 | 64.19320 | 40832 ft | 485 kts | 141° |
| 2026-05-07 09:48 | 15.71608 | 64.23767 | 40832 ft | 485 kts | 141° |
| 2026-05-07 09:49 | 15.66400 | 64.28211 | 40832 ft | 485 kts | 141° |
| 2026-05-07 09:49 | 15.61195 | 64.32648 | 40832 ft | 484 kts | 141° |
| 2026-05-07 09:50 | 15.55989 | 64.37084 | 40832 ft | 484 kts | 141° |
| 2026-05-07 09:50 | 15.50781 | 64.41518 | 40832 ft | 484 kts | 141° |
| 2026-05-07 09:51 | 15.45575 | 64.45948 | 40832 ft | 484 kts | 141° |
| 2026-05-07 09:51 | 15.40365 | 64.50378 | 40832 ft | 484 kts | 141° |
| 2026-05-07 09:52 | 15.35157 | 64.54803 | 40832 ft | 484 kts | 141° |
| 2026-05-07 09:52 | 15.29951 | 64.59224 | 40832 ft | 484 kts | 141° |
| 2026-05-07 09:53 | 15.24742 | 64.63644 | 40832 ft | 484 kts | 141° |
| 2026-05-07 09:53 | 15.19531 | 64.68064 | 40832 ft | 484 kts | 141° |
| 2026-05-07 09:54 | 15.14351 | 64.72453 | 40832 ft | 484 kts | 141° |
| 2026-05-07 09:54 | 15.09145 | 64.76862 | 40824 ft | 484 kts | 141° |
| 2026-05-07 09:55 | 15.03938 | 64.81269 | 40822 ft | 484 kts | 141° |
| 2026-05-07 09:55 | 14.98724 | 64.85679 | 40823 ft | 484 kts | 141° |
| 2026-05-07 09:56 | 14.93512 | 64.90085 | 40823 ft | 483 kts | 141° |
| 2026-05-07 09:56 | 14.88305 | 64.94483 | 40823 ft | 483 kts | 141° |
| 2026-05-07 09:57 | 14.83096 | 64.98880 | 40823 ft | 483 kts | 141° |
| 2026-05-07 09:57 | 14.77888 | 65.03274 | 40823 ft | 483 kts | 141° |
| 2026-05-07 09:58 | 14.72674 | 65.07670 | 40823 ft | 483 kts | 141° |
| 2026-05-07 09:58 | 14.67465 | 65.12059 | 40823 ft | 483 kts | 141° |
| 2026-05-07 09:59 | 14.62250 | 65.16450 | 40823 ft | 483 kts | 141° |
| 2026-05-07 09:59 | 14.57077 | 65.20805 | 40823 ft | 483 kts | 141° |
| 2026-05-07 10:00 | 14.51833 | 65.25212 | 40823 ft | 483 kts | 141° |
| 2026-05-07 10:00 | 14.46656 | 65.29559 | 40823 ft | 483 kts | 141° |
| 2026-05-07 10:01 | 14.41447 | 65.33930 | 40823 ft | 483 kts | 141° |
| 2026-05-07 10:01 | 14.36240 | 65.38298 | 40823 ft | 483 kts | 141° |
| 2026-05-07 10:02 | 14.31028 | 65.42667 | 40823 ft | 482 kts | 141° |
| 2026-05-07 10:02 | 14.25821 | 65.47030 | 40823 ft | 482 kts | 141° |
| 2026-05-07 10:03 | 14.20617 | 65.51388 | 40823 ft | 482 kts | 141° |
| 2026-05-07 10:03 | 14.15414 | 65.55742 | 40823 ft | 482 kts | 141° |
| 2026-05-07 10:04 | 14.10204 | 65.60099 | 40813 ft | 482 kts | 141° |
| 2026-05-07 10:04 | 14.05001 | 65.64448 | 40813 ft | 482 kts | 141° |
| 2026-05-07 10:05 | 13.99796 | 65.68796 | 40813 ft | 482 kts | 141° |
| 2026-05-07 10:05 | 13.94592 | 65.73140 | 40813 ft | 481 kts | 141° |
| 2026-05-07 10:06 | 13.89390 | 65.77480 | 40813 ft | 481 kts | 141° |
| 2026-05-07 10:06 | 13.84186 | 65.81819 | 40813 ft | 481 kts | 141° |
| 2026-05-07 10:07 | 13.78983 | 65.86155 | 40813 ft | 481 kts | 141° |
| 2026-05-07 10:07 | 13.73777 | 65.90490 | 40813 ft | 481 kts | 141° |
| 2026-05-07 10:08 | 13.68572 | 65.94822 | 40813 ft | 481 kts | 141° |
| 2026-05-07 10:08 | 13.63365 | 65.99154 | 40813 ft | 481 kts | 141° |
| 2026-05-07 10:09 | 13.58159 | 66.03481 | 40814 ft | 481 kts | 141° |
| 2026-05-07 10:09 | 13.52949 | 66.07810 | 40813 ft | 482 kts | 141° |
| 2026-05-07 10:10 | 13.47737 | 66.12138 | 40814 ft | 482 kts | 141° |
| 2026-05-07 10:10 | 13.42521 | 66.16466 | 40814 ft | 482 kts | 141° |
| 2026-05-07 10:11 | 13.37338 | 66.20766 | 40814 ft | 482 kts | 141° |
| 2026-05-07 10:11 | 13.32094 | 66.25112 | 40813 ft | 481 kts | 141° |
| 2026-05-07 10:12 | 13.26920 | 66.29399 | 40813 ft | 481 kts | 141° |
| 2026-05-07 10:12 | 13.21673 | 66.33744 | 40814 ft | 482 kts | 141° |
| 2026-05-07 10:13 | 13.16457 | 66.38060 | 40813 ft | 482 kts | 141° |
| 2026-05-07 10:13 | 13.11272 | 66.42348 | 40813 ft | 482 kts | 141° |
| 2026-05-07 10:14 | 13.06054 | 66.46661 | 40813 ft | 482 kts | 141° |
| 2026-05-07 10:14 | 13.00833 | 66.50975 | 40813 ft | 482 kts | 141° |
| 2026-05-07 10:15 | 12.95607 | 66.55290 | 40814 ft | 482 kts | 141° |
| 2026-05-07 10:15 | 12.90385 | 66.59599 | 40814 ft | 482 kts | 141° |
| 2026-05-07 10:16 | 12.85156 | 66.63912 | 40813 ft | 482 kts | 141° |
| 2026-05-07 10:16 | 12.79931 | 66.68219 | 40813 ft | 482 kts | 141° |
| 2026-05-07 10:17 | 12.74707 | 66.72523 | 40813 ft | 482 kts | 141° |
| 2026-05-07 10:17 | 12.70367 | 66.76096 | 40813 ft | 482 kts | 141° |
| 2026-05-07 10:18 | 12.65143 | 66.80395 | 40804 ft | 482 kts | 141° |
| 2026-05-07 10:18 | 12.59917 | 66.84695 | 40804 ft | 482 kts | 141° |
| 2026-05-07 10:19 | 12.54692 | 66.88990 | 40804 ft | 482 kts | 141° |
| 2026-05-07 10:19 | 12.49457 | 66.93292 | 40804 ft | 482 kts | 141° |
| 2026-05-07 10:20 | 12.44226 | 66.97588 | 40803 ft | 482 kts | 141° |
| 2026-05-07 10:20 | 12.38996 | 67.01881 | 40795 ft | 482 kts | 141° |
| 2026-05-07 10:21 | 12.33759 | 67.06177 | 40795 ft | 482 kts | 141° |
| 2026-05-07 10:21 | 12.28527 | 67.10467 | 40795 ft | 482 kts | 141° |
| 2026-05-07 10:22 | 12.23292 | 67.14757 | 40795 ft | 482 kts | 141° |
| 2026-05-07 10:22 | 12.18055 | 67.19047 | 40795 ft | 482 kts | 141° |
| 2026-05-07 10:23 | 12.12819 | 67.23334 | 40795 ft | 482 kts | 141° |
| 2026-05-07 10:23 | 12.07583 | 67.27618 | 40795 ft | 482 kts | 141° |
| 2026-05-07 10:24 | 12.02346 | 67.31901 | 40795 ft | 482 kts | 141° |
| 2026-05-07 10:24 | 11.97105 | 67.36185 | 40795 ft | 482 kts | 141° |
| 2026-05-07 10:25 | 11.91872 | 67.40462 | 40795 ft | 482 kts | 141° |
| 2026-05-07 10:25 | 11.86631 | 67.44742 | 40795 ft | 482 kts | 141° |
| 2026-05-07 10:26 | 11.81391 | 67.49021 | 40795 ft | 482 kts | 141° |
| 2026-05-07 10:26 | 11.76153 | 67.53295 | 40795 ft | 482 kts | 141° |
| 2026-05-07 10:27 | 11.70913 | 67.57569 | 40795 ft | 482 kts | 141° |
| 2026-05-07 10:27 | 11.65669 | 67.61843 | 40795 ft | 482 kts | 141° |
| 2026-05-07 10:28 | 11.60428 | 67.66114 | 40795 ft | 482 kts | 141° |
| 2026-05-07 10:28 | 11.55219 | 67.70356 | 40795 ft | 482 kts | 141° |
| 2026-05-07 10:29 | 11.49977 | 67.74624 | 40795 ft | 482 kts | 141° |
| 2026-05-07 10:29 | 11.44736 | 67.78888 | 40795 ft | 482 kts | 141° |
| 2026-05-07 10:30 | 11.36832 | 67.85314 | 40795 ft | 482 kts | 141° |
| 2026-05-07 10:30 | 11.31625 | 67.89545 | 40799 ft | 482 kts | 141° |
| 2026-05-07 10:31 | 11.26370 | 67.93814 | 40804 ft | 482 kts | 141° |
| 2026-05-07 10:31 | 11.21127 | 67.98070 | 40804 ft | 482 kts | 141° |
| 2026-05-07 10:32 | 11.15884 | 68.02325 | 40804 ft | 482 kts | 141° |
| 2026-05-07 10:32 | 11.10641 | 68.06577 | 40806 ft | 482 kts | 141° |
| 2026-05-07 10:33 | 11.05400 | 68.10826 | 40804 ft | 482 kts | 141° |
| 2026-05-07 10:33 | 11.00156 | 68.15075 | 40797 ft | 481 kts | 141° |
| 2026-05-07 10:34 | 10.94917 | 68.19319 | 40785 ft | 481 kts | 141° |
| 2026-05-07 10:34 | 10.89680 | 68.23558 | 40785 ft | 481 kts | 141° |
| 2026-05-07 10:35 | 10.84441 | 68.27797 | 40786 ft | 481 kts | 141° |
| 2026-05-07 10:35 | 10.79206 | 68.32031 | 40786 ft | 481 kts | 141° |
| 2026-05-07 10:36 | 10.73968 | 68.36266 | 40786 ft | 481 kts | 141° |
| 2026-05-07 10:36 | 10.68735 | 68.40494 | 40786 ft | 481 kts | 141° |
| 2026-05-07 10:37 | 10.63499 | 68.44723 | 40786 ft | 481 kts | 141° |
| 2026-05-07 10:37 | 10.58265 | 68.48948 | 40786 ft | 481 kts | 141° |
| 2026-05-07 10:38 | 10.53029 | 68.53174 | 40786 ft | 481 kts | 141° |
| 2026-05-07 10:38 | 10.47789 | 68.57400 | 40786 ft | 481 kts | 141° |
| 2026-05-07 10:39 | 10.42557 | 68.61619 | 40786 ft | 480 kts | 141° |
| 2026-05-07 10:39 | 10.37319 | 68.65840 | 40785 ft | 480 kts | 141° |
| 2026-05-07 10:40 | 10.32081 | 68.70060 | 40785 ft | 480 kts | 141° |
| 2026-05-07 10:40 | 10.26844 | 68.74276 | 40785 ft | 480 kts | 141° |
| 2026-05-07 10:41 | 10.21609 | 68.78489 | 40785 ft | 480 kts | 141° |
| 2026-05-07 10:41 | 10.16376 | 68.82699 | 40786 ft | 480 kts | 141° |
| 2026-05-07 10:42 | 10.11174 | 68.86882 | 40786 ft | 480 kts | 141° |
| 2026-05-07 10:42 | 10.05935 | 68.91093 | 40786 ft | 480 kts | 141° |
| 2026-05-07 10:43 | 10.00706 | 68.95294 | 40785 ft | 480 kts | 141° |
| 2026-05-07 10:43 | 9.95473 | 68.99497 | 40786 ft | 479 kts | 141° |
| 2026-05-07 10:44 | 9.90252 | 69.03689 | 40785 ft | 479 kts | 141° |
| 2026-05-07 10:44 | 9.85026 | 69.07882 | 40785 ft | 479 kts | 141° |
| 2026-05-07 10:45 | 9.79802 | 69.12072 | 40785 ft | 479 kts | 141° |
| 2026-05-07 10:45 | 9.74576 | 69.16263 | 40785 ft | 479 kts | 141° |
| 2026-05-07 10:46 | 9.69353 | 69.20449 | 40785 ft | 478 kts | 141° |
| 2026-05-07 10:46 | 9.64131 | 69.24627 | 40786 ft | 478 kts | 141° |
| 2026-05-07 10:47 | 9.58907 | 69.28804 | 40786 ft | 478 kts | 141° |
| 2026-05-07 10:47 | 9.53686 | 69.32979 | 40786 ft | 478 kts | 141° |
| 2026-05-07 10:48 | 9.48463 | 69.37154 | 40786 ft | 478 kts | 141° |
| 2026-05-07 10:48 | 9.43237 | 69.41330 | 40786 ft | 478 kts | 141° |
| 2026-05-07 10:49 | 9.38016 | 69.45500 | 40786 ft | 478 kts | 141° |
| 2026-05-07 10:49 | 9.32788 | 69.49675 | 40786 ft | 478 kts | 141° |
| 2026-05-07 10:50 | 9.27562 | 69.53846 | 40786 ft | 478 kts | 141° |
| 2026-05-07 10:50 | 9.22336 | 69.58015 | 40785 ft | 478 kts | 141° |
| 2026-05-07 10:51 | 9.17113 | 69.62180 | 40785 ft | 478 kts | 141° |
| 2026-05-07 10:51 | 9.11890 | 69.66344 | 40785 ft | 478 kts | 141° |
| 2026-05-07 10:52 | 9.06697 | 69.70482 | 40785 ft | 478 kts | 141° |
| 2026-05-07 10:52 | 9.01471 | 69.74645 | 40786 ft | 478 kts | 141° |
| 2026-05-07 10:53 | 8.96249 | 69.78803 | 40786 ft | 478 kts | 141° |
| 2026-05-07 10:53 | 8.91026 | 69.82961 | 40785 ft | 478 kts | 141° |
| 2026-05-07 10:54 | 8.85801 | 69.87118 | 40785 ft | 478 kts | 141° |
| 2026-05-07 10:54 | 8.80572 | 69.91277 | 40785 ft | 478 kts | 141° |
| 2026-05-07 10:55 | 8.75340 | 69.95437 | 40785 ft | 478 kts | 141° |
| 2026-05-07 10:55 | 8.70114 | 69.99590 | 40785 ft | 478 kts | 141° |
| 2026-05-07 10:56 | 8.64891 | 70.03741 | 40785 ft | 478 kts | 141° |
| 2026-05-07 10:56 | 8.59664 | 70.07892 | 40785 ft | 478 kts | 141° |
| 2026-05-07 10:57 | 8.54440 | 70.12040 | 40786 ft | 478 kts | 141° |
| 2026-05-07 10:57 | 8.49215 | 70.16186 | 40785 ft | 478 kts | 141° |
| 2026-05-07 10:58 | 8.43986 | 70.20335 | 40786 ft | 478 kts | 141° |
| 2026-05-07 10:58 | 8.38758 | 70.24481 | 40786 ft | 478 kts | 141° |
| 2026-05-07 10:59 | 8.33535 | 70.28622 | 40785 ft | 477 kts | 141° |
| 2026-05-07 10:59 | 8.28309 | 70.32763 | 40785 ft | 478 kts | 141° |
| 2026-05-07 11:00 | 8.23963 | 70.36207 | 40786 ft | 478 kts | 141° |
| 2026-05-07 11:00 | 8.18737 | 70.40346 | 40786 ft | 478 kts | 141° |
| 2026-05-07 11:01 | 8.13509 | 70.44485 | 40786 ft | 478 kts | 141° |
| 2026-05-07 11:01 | 8.08279 | 70.48625 | 40785 ft | 478 kts | 141° |
| 2026-05-07 11:02 | 8.03049 | 70.52763 | 40785 ft | 478 kts | 141° |
| 2026-05-07 11:02 | 7.97819 | 70.56900 | 40785 ft | 478 kts | 141° |
| 2026-05-07 11:03 | 7.92581 | 70.61041 | 40785 ft | 478 kts | 141° |
| 2026-05-07 11:03 | 7.87347 | 70.65178 | 40793 ft | 478 kts | 141° |
| 2026-05-07 11:04 | 7.82109 | 70.69317 | 40794 ft | 478 kts | 141° |
| 2026-05-07 11:04 | 7.76873 | 70.73453 | 40795 ft | 478 kts | 141° |
| 2026-05-07 11:05 | 7.71634 | 70.77591 | 40795 ft | 478 kts | 141° |
| 2026-05-07 11:05 | 7.66396 | 70.81725 | 40795 ft | 478 kts | 141° |
| 2026-05-07 11:06 | 7.61154 | 70.85862 | 40795 ft | 479 kts | 141° |
| 2026-05-07 11:06 | 7.55902 | 70.90005 | 40795 ft | 479 kts | 141° |
| 2026-05-07 11:07 | 7.50656 | 70.94143 | 40794 ft | 479 kts | 141° |
| 2026-05-07 11:07 | 7.45404 | 70.98281 | 40795 ft | 479 kts | 141° |
| 2026-05-07 11:08 | 7.40185 | 71.02387 | 40795 ft | 479 kts | 141° |
| 2026-05-07 11:08 | 7.34927 | 71.06524 | 40794 ft | 479 kts | 141° |
| 2026-05-07 11:09 | 7.29671 | 71.10659 | 40795 ft | 479 kts | 141° |
| 2026-05-07 11:09 | 7.24416 | 71.14791 | 40795 ft | 479 kts | 141° |
| 2026-05-07 11:10 | 7.19151 | 71.18931 | 40799 ft | 479 kts | 141° |
| 2026-05-07 11:10 | 7.13894 | 71.23062 | 40794 ft | 479 kts | 141° |
| 2026-05-07 11:11 | 7.08635 | 71.27194 | 40795 ft | 480 kts | 141° |
| 2026-05-07 11:11 | 7.03371 | 71.31330 | 40794 ft | 480 kts | 141° |
| 2026-05-07 11:12 | 6.98111 | 71.35460 | 40795 ft | 480 kts | 141° |
| 2026-05-07 11:12 | 6.92847 | 71.39592 | 40795 ft | 480 kts | 141° |
| 2026-05-07 11:13 | 6.87581 | 71.43725 | 40794 ft | 480 kts | 141° |
| 2026-05-07 11:13 | 6.82311 | 71.47860 | 40795 ft | 480 kts | 141° |
| 2026-05-07 11:14 | 6.77075 | 71.51967 | 40795 ft | 480 kts | 141° |
| 2026-05-07 11:14 | 6.71802 | 71.56102 | 40794 ft | 480 kts | 141° |
| 2026-05-07 11:15 | 6.66620 | 71.60164 | 40795 ft | 480 kts | 141° |
| 2026-05-07 11:15 | 6.61344 | 71.64299 | 40795 ft | 481 kts | 141° |
| 2026-05-07 11:16 | 6.56068 | 71.68433 | 40794 ft | 481 kts | 141° |
| 2026-05-07 11:16 | 6.50791 | 71.72565 | 40794 ft | 481 kts | 141° |
| 2026-05-07 11:17 | 6.45512 | 71.76700 | 40794 ft | 481 kts | 141° |
| 2026-05-07 11:17 | 6.40230 | 71.80834 | 40794 ft | 481 kts | 141° |
| 2026-05-07 11:18 | 6.34714 | 71.84631 | 40795 ft | 482 kts | 149° |
| 2026-05-07 11:18 | 6.28858 | 71.87915 | 40787 ft | 482 kts | 150° |
| 2026-05-07 11:19 | 6.22984 | 71.91190 | 40775 ft | 483 kts | 150° |
| 2026-05-07 11:19 | 6.17117 | 71.94468 | 40775 ft | 483 kts | 150° |
| 2026-05-07 11:20 | 6.11241 | 71.97752 | 40776 ft | 483 kts | 150° |
| 2026-05-07 11:20 | 6.05372 | 72.01031 | 40777 ft | 483 kts | 150° |
| 2026-05-07 11:21 | 5.99495 | 72.04315 | 40776 ft | 483 kts | 150° |
| 2026-05-07 11:21 | 5.93626 | 72.07593 | 40775 ft | 483 kts | 150° |
| 2026-05-07 11:22 | 5.87754 | 72.10873 | 40778 ft | 483 kts | 150° |
| 2026-05-07 11:22 | 5.81880 | 72.14153 | 40778 ft | 483 kts | 150° |
| 2026-05-07 11:23 | 5.76011 | 72.17424 | 40777 ft | 483 kts | 150° |
| 2026-05-07 11:23 | 5.70133 | 72.20700 | 40775 ft | 483 kts | 150° |
| 2026-05-07 11:24 | 5.64258 | 72.23975 | 40775 ft | 483 kts | 150° |
| 2026-05-07 11:24 | 5.58385 | 72.27248 | 40776 ft | 483 kts | 150° |
| 2026-05-07 11:25 | 5.52510 | 72.30521 | 40777 ft | 483 kts | 150° |
| 2026-05-07 11:25 | 5.46634 | 72.33794 | 40452 ft | 483 kts | 150° |
| 2026-05-07 11:26 | 5.43740 | 72.35406 | 40210 ft | 483 kts | 150° |
| 2026-05-07 11:26 | 5.40801 | 72.37043 | 39955 ft | 484 kts | 150° |
| 2026-05-07 11:26 | 5.37854 | 72.38684 | 39713 ft | 484 kts | 150° |
| 2026-05-07 11:26 | 5.34907 | 72.40325 | 39476 ft | 485 kts | 150° |
| 2026-05-07 11:27 | 5.31955 | 72.41968 | 39224 ft | 485 kts | 150° |
| 2026-05-07 11:27 | 5.29013 | 72.43605 | 38792 ft | 482 kts | 150° |
| 2026-05-07 11:27 | 5.26086 | 72.45234 | 38172 ft | 481 kts | 150° |
| 2026-05-07 11:27 | 5.23156 | 72.46865 | 37492 ft | 481 kts | 150° |
| 2026-05-07 11:28 | 5.20230 | 72.48494 | 36811 ft | 482 kts | 150° |
| 2026-05-07 11:28 | 5.17295 | 72.50127 | 36106 ft | 482 kts | 150° |
| 2026-05-07 11:28 | 5.14362 | 72.51758 | 35389 ft | 483 kts | 150° |
| 2026-05-07 11:28 | 5.11421 | 72.53395 | 34623 ft | 484 kts | 150° |
| 2026-05-07 11:29 | 5.08471 | 72.55035 | 33790 ft | 486 kts | 150° |
| 2026-05-07 11:29 | 5.05506 | 72.56684 | 32941 ft | 489 kts | 150° |
| 2026-05-07 11:29 | 5.02527 | 72.58341 | 32059 ft | 491 kts | 150° |
| 2026-05-07 11:29 | 4.99531 | 72.60007 | 31141 ft | 494 kts | 150° |
| 2026-05-07 11:30 | 4.96525 | 72.61678 | 30471 ft | 492 kts | 150° |
| 2026-05-07 11:30 | 4.93545 | 72.63334 | 29870 ft | 488 kts | 150° |
| 2026-05-07 11:30 | 4.90583 | 72.64980 | 29251 ft | 484 kts | 150° |
| 2026-05-07 11:30 | 4.87650 | 72.66610 | 28632 ft | 481 kts | 150° |
| 2026-05-07 11:31 | 4.84733 | 72.68231 | 28014 ft | 477 kts | 150° |
| 2026-05-07 11:31 | 4.81844 | 72.69837 | 27408 ft | 473 kts | 151° |
| 2026-05-07 11:31 | 4.78976 | 72.71432 | 26796 ft | 470 kts | 151° |
| 2026-05-07 11:31 | 4.76130 | 72.73013 | 26195 ft | 466 kts | 151° |
| 2026-05-07 11:32 | 4.70502 | 72.76140 | 24984 ft | 458 kts | 151° |
| 2026-05-07 11:32 | 4.67725 | 72.77680 | 24382 ft | 455 kts | 151° |
| 2026-05-07 11:32 | 4.65008 | 72.79190 | 23785 ft | 451 kts | 151° |
| 2026-05-07 11:33 | 4.62271 | 72.80711 | 23180 ft | 448 kts | 151° |
| 2026-05-07 11:33 | 4.59554 | 72.82220 | 22570 ft | 445 kts | 151° |
| 2026-05-07 11:33 | 4.56858 | 72.83717 | 22054 ft | 440 kts | 151° |
| 2026-05-07 11:33 | 4.54196 | 72.85196 | 21547 ft | 435 kts | 151° |
| 2026-05-07 11:34 | 4.51560 | 72.86658 | 20956 ft | 432 kts | 151° |
| 2026-05-07 11:34 | 4.48940 | 72.88112 | 20341 ft | 430 kts | 151° |
| 2026-05-07 11:34 | 4.46328 | 72.89562 | 19719 ft | 427 kts | 151° |
| 2026-05-07 11:34 | 4.43734 | 72.91002 | 19101 ft | 425 kts | 151° |
| 2026-05-07 11:35 | 4.41151 | 72.92436 | 18486 ft | 423 kts | 152° |
| 2026-05-07 11:35 | 4.38586 | 72.93859 | 17850 ft | 420 kts | 151° |
| 2026-05-07 11:35 | 4.36037 | 72.95273 | 17216 ft | 417 kts | 152° |
| 2026-05-07 11:35 | 4.33511 | 72.96675 | 16592 ft | 413 kts | 152° |
| 2026-05-07 11:36 | 4.31017 | 72.98059 | 15988 ft | 408 kts | 151° |
| 2026-05-07 11:36 | 4.28542 | 72.99432 | 15377 ft | 404 kts | 152° |
| 2026-05-07 11:36 | 4.26129 | 73.00770 | 14766 ft | 400 kts | 151° |
| 2026-05-07 11:36 | 4.23707 | 73.02113 | 14174 ft | 396 kts | 151° |
| 2026-05-07 11:37 | 4.21307 | 73.03445 | 13580 ft | 392 kts | 151° |
| 2026-05-07 11:37 | 4.18932 | 73.04762 | 12976 ft | 389 kts | 151° |
| 2026-05-07 11:37 | 4.16580 | 73.06066 | 12377 ft | 385 kts | 151° |
| 2026-05-07 11:37 | 4.14251 | 73.07358 | 11792 ft | 381 kts | 151° |
| 2026-05-07 11:38 | 4.11941 | 73.08638 | 11214 ft | 378 kts | 151° |
| 2026-05-07 11:38 | 4.09682 | 73.09891 | 11012 ft | 362 kts | 151° |
| 2026-05-07 11:38 | 4.07532 | 73.11083 | 10879 ft | 345 kts | 151° |
| 2026-05-07 11:38 | 4.05478 | 73.12223 | 10748 ft | 330 kts | 151° |
| 2026-05-07 11:39 | 4.03511 | 73.13313 | 10613 ft | 316 kts | 151° |
| 2026-05-07 11:39 | 4.01628 | 73.14357 | 10478 ft | 303 kts | 151° |
| 2026-05-07 11:39 | 3.99811 | 73.15365 | 10260 ft | 296 kts | 151° |
| 2026-05-07 11:39 | 3.98014 | 73.16362 | 9915 ft | 294 kts | 152° |
| 2026-05-07 11:40 | 3.96312 | 73.17524 | 9562 ft | 301 kts | 137° |
| 2026-05-07 11:40 | 3.95140 | 73.19248 | 9132 ft | 302 kts | 109° |
| 2026-05-07 11:40 | 3.94803 | 73.21304 | 8759 ft | 300 kts | 91° |
| 2026-05-07 11:40 | 3.94796 | 73.23391 | 8394 ft | 299 kts | 89° |
| 2026-05-07 11:41 | 3.94820 | 73.25469 | 8051 ft | 298 kts | 89° |
| 2026-05-07 11:41 | 3.94837 | 73.27535 | 7718 ft | 296 kts | 89° |
| 2026-05-07 11:41 | 3.94848 | 73.29568 | 7376 ft | 295 kts | 89° |
| 2026-05-07 11:41 | 3.94857 | 73.31640 | 7046 ft | 293 kts | 89° |
| 2026-05-07 11:42 | 3.94868 | 73.33666 | 6735 ft | 288 kts | 89° |
| 2026-05-07 11:42 | 3.94875 | 73.35628 | 6432 ft | 282 kts | 89° |
| 2026-05-07 11:42 | 3.94880 | 73.37567 | 6131 ft | 276 kts | 89° |
| 2026-05-07 11:42 | 3.94885 | 73.39467 | 5835 ft | 270 kts | 89° |
| 2026-05-07 11:43 | 3.94888 | 73.41332 | 5525 ft | 266 kts | 89° |
| 2026-05-07 11:43 | 3.94894 | 73.43169 | 5223 ft | 263 kts | 89° |
| 2026-05-07 11:43 | 3.94896 | 73.44997 | 4923 ft | 262 kts | 89° |
| 2026-05-07 11:43 | 3.94897 | 73.46818 | 4611 ft | 261 kts | 89° |
| 2026-05-07 11:44 | 3.94897 | 73.48622 | 4315 ft | 257 kts | 89° |
| 2026-05-07 11:44 | 3.94920 | 73.50401 | 4012 ft | 254 kts | 85° |
| 2026-05-07 11:44 | 3.95446 | 73.52038 | 3716 ft | 246 kts | 52° |
| 2026-05-07 11:44 | 3.96768 | 73.53020 | 3412 ft | 236 kts | 14° |
| 2026-05-07 11:45 | 3.98378 | 73.53193 | 3115 ft | 232 kts | 355° |
| 2026-05-07 11:45 | 3.99950 | 73.53038 | 2992 ft | 221 kts | 355° |
| 2026-05-07 11:45 | 4.01432 | 73.53062 | 2991 ft | 204 kts | 0° |
| 2026-05-07 11:45 | 4.02789 | 73.53095 | 3004 ft | 186 kts | 359° |
| 2026-05-07 11:46 | 4.04057 | 73.53109 | 2861 ft | 180 kts | 358° |
| 2026-05-07 11:46 | 4.05305 | 73.53104 | 2611 ft | 178 kts | 357° |
| 2026-05-07 11:46 | 4.06544 | 73.53101 | 2356 ft | 177 kts | 358° |
| 2026-05-07 11:46 | 4.07774 | 73.53099 | 2117 ft | 175 kts | 358° |
| 2026-05-07 11:47 | 4.08567 | 73.53101 | 1965 ft | 168 kts | 359° |
| 2026-05-07 11:47 | 4.09705 | 73.53104 | 1734 ft | 159 kts | 358° |
| 2026-05-07 11:47 | 4.10774 | 73.53105 | 1523 ft | 148 kts | 358° |
| 2026-05-07 11:47 | 4.11768 | 73.53106 | 1344 ft | 139 kts | 358° |
| 2026-05-07 11:48 | 4.12728 | 73.53104 | 1165 ft | 138 kts | 358° |
| 2026-05-07 11:48 | 4.13682 | 73.53101 | 992 ft | 137 kts | 358° |
| 2026-05-07 11:48 | 4.14637 | 73.53100 | 802 ft | 137 kts | 358° |
| 2026-05-07 11:48 | 4.15592 | 73.53100 | 621 ft | 137 kts | 359° |
| 2026-05-07 11:49 | 4.16551 | 73.53099 | 438 ft | 139 kts | 359° |
| 2026-05-07 11:49 | 4.17524 | 73.53105 | 252 ft | 141 kts | 359° |
| 2026-05-07 11:49 | 4.18497 | 73.53103 | 69 ft | 139 kts | 359° |
| 2026-05-07 11:49 | 4.19426 | 73.53098 | 19 ft | 123 kts | 359° |
| 2026-05-07 11:50 | 4.20152 | 73.53098 | 22 ft | 85 kts | 0° |
| 2026-05-07 11:50 | 4.20578 | 73.53101 | 20 ft | 32 kts | 0° |
| 2026-05-07 11:50 | 4.20788 | 73.53102 | 19 ft | 21 kts | 0° |
| 2026-05-07 11:50 | 4.20916 | 73.53082 | 23 ft | 18 kts | 315° |
| 2026-05-07 11:51 | 4.20930 | 73.52965 | 20 ft | 18 kts | 269° |
| 2026-05-07 11:51 | 4.20843 | 73.52900 | 19 ft | 18 kts | 195° |
| 2026-05-07 11:51 | 4.20716 | 73.52890 | 22 ft | 19 kts | 178° |
| 2026-05-07 11:51 | 4.20572 | 73.52895 | 22 ft | 22 kts | 178° |
| 2026-05-07 11:52 | 4.20416 | 73.52897 | 22 ft | 24 kts | 180° |
| 2026-05-07 11:52 | 4.20245 | 73.52898 | 19 ft | 26 kts | 179° |
| 2026-05-07 11:52 | 4.20061 | 73.52901 | 20 ft | 27 kts | 179° |
| 2026-05-07 11:52 | 4.19865 | 73.52905 | 19 ft | 29 kts | 179° |
| 2026-05-07 11:53 | 4.19657 | 73.52908 | 22 ft | 31 kts | 179° |
| 2026-05-07 11:53 | 4.19439 | 73.52911 | 19 ft | 32 kts | 179° |
| 2026-05-07 11:53 | 4.19211 | 73.52916 | 22 ft | 33 kts | 179° |
| 2026-05-07 11:53 | 4.18974 | 73.52920 | 20 ft | 35 kts | 179° |
| 2026-05-07 11:54 | 4.18730 | 73.52921 | 19 ft | 36 kts | 180° |
| 2026-05-07 11:54 | 4.18496 | 73.52922 | 20 ft | 30 kts | 180° |
| 2026-05-07 11:54 | 4.18324 | 73.52926 | 20 ft | 20 kts | 177° |
| 2026-05-07 11:54 | 4.18186 | 73.52933 | 20 ft | 15 kts | 177° |
| 2026-05-07 11:55 | 4.18127 | 73.52895 | 19 ft | 9 kts | 256° |
| 2026-05-07 11:55 | 4.18138 | 73.52840 | 21 ft | 8 kts | 277° |
| 2026-05-07 11:55 | 4.18138 | 73.52803 | 21 ft | 0 kts | 269° |
| 2026-05-07 11:55 | 4.18138 | 73.52796 | 20 ft | 3 kts | 269° |
| 2026-05-07 11:56 | 4.18137 | 73.52776 | 19 ft | 3 kts | 269° |
| 2026-05-07 11:56 | 4.18137 | 73.52771 | 19 ft | 0 kts | 269° |